Time;durP1;ratioP1;P1;durP2;ratioP2;P2;SDS_P1;SDS_P2;PMS_P1;PMS_P2;Temp;Humidity;BMP_temperature;BMP_pressure;BME280_temperature;BME280_humidity;BME280_pressure;Samples;Min_cycle;Max_cycle;Signal;HPM_P1;HPM_P2
2021/06/28 00:02:33;;;;;;;5.82;4.63;;;17.20;99.90;;;17.21;100.00;100418.84;3507770;39;100328;-82
2021/06/28 00:05:47;;;;;;;7.80;4.97;;;17.10;99.90;;;17.21;100.00;100418.00;3498782;40;99932;-81
2021/06/28 00:09:00;;;;;;;6.13;4.53;;;17.10;99.90;;;17.21;100.00;100418.84;3494427;39;101729;-82
2021/06/28 00:12:14;;;;;;;5.43;3.85;;;17.00;99.90;;;16.96;100.00;100419.50;3514427;39;101773;-82
2021/06/28 00:15:27;;;;;;;9.43;4.55;;;16.90;99.90;;;16.71;100.00;100422.63;3507592;39;100903;-83
2021/06/28 00:18:40;;;;;;;5.72;4.78;;;17.00;99.90;;;16.76;100.00;100435.56;3507382;39;100457;-83
2021/06/28 00:21:51;;;;;;;5.63;4.43;;;16.90;99.90;;;16.55;100.00;100433.69;3508510;39;101026;-82
2021/06/28 00:25:04;;;;;;;6.90;4.93;;;16.80;99.90;;;16.68;100.00;100433.84;3523578;39;101164;-82
2021/06/28 00:28:18;;;;;;;5.68;4.65;;;16.70;99.90;;;16.44;100.00;100440.41;3513493;39;99948;-83
2021/06/28 00:31:31;;;;;;;5.25;4.75;;;16.70;99.90;;;16.30;100.00;100440.47;3506827;39;99995;-83
2021/06/28 00:34:42;;;;;;;5.18;4.68;;;16.70;99.90;;;16.45;100.00;100439.38;3498136;39;102827;-82
2021/06/28 00:37:55;;;;;;;6.03;4.70;;;16.80;99.90;;;16.30;100.00;100446.72;3507139;39;102115;-82
2021/06/28 00:41:07;;;;;;;5.45;4.78;;;16.50;99.90;;;16.27;100.00;100443.56;3488396;40;102438;-82
2021/06/28 00:44:20;;;;;;;6.82;4.63;;;16.50;99.90;;;16.22;100.00;100448.69;3499615;40;101155;-82
2021/06/28 00:47:32;;;;;;;6.45;4.95;;;16.40;99.90;;;16.20;100.00;100454.25;3497972;40;101449;-83
2021/06/28 00:50:46;;;;;;;7.03;4.85;;;16.40;99.90;;;16.27;100.00;100443.56;3487107;40;103228;-81
2021/06/28 00:53:59;;;;;;;8.70;5.03;;;17.40;99.90;;;16.53;100.00;100438.44;3492107;40;100117;-82
2021/06/28 00:57:11;;;;;;;7.20;4.90;;;16.30;99.90;;;16.45;100.00;100438.53;3493854;40;100148;-82
2021/06/28 01:00:26;;;;;;;5.85;4.72;;;16.40;99.90;;;16.41;100.00;100429.16;3493353;39;100832;-81
2021/06/28 01:03:38;;;;;;;5.28;4.75;;;16.40;99.90;;;16.32;100.00;100427.63;3489652;40;102934;-82
2021/06/28 01:06:50;;;;;;;5.95;4.68;;;16.30;99.90;;;16.14;100.00;100434.28;3488512;40;102833;-82
2021/06/28 01:10:01;;;;;;;6.40;4.80;;;16.40;99.90;;;16.14;100.00;100431.59;3514683;39;99970;-82
2021/06/28 01:13:15;;;;;;;7.32;5.18;;;16.80;99.90;;;16.10;100.00;100437.53;3500393;39;100343;-82
2021/06/28 01:16:31;;;;;;;7.05;5.60;;;16.30;99.90;;;15.94;100.00;100435.09;3488442;40;103263;-82
2021/06/28 01:19:45;;;;;;;5.68;5.07;;;16.20;99.90;;;15.92;100.00;100435.28;3501014;39;101299;-82
2021/06/28 01:23:04;;;;;;;7.20;5.20;;;16.20;99.90;;;16.00;100.00;100437.03;3498270;39;100808;-82
2021/06/28 01:26:21;;;;;;;5.88;5.28;;;16.10;99.90;;;16.10;100.00;100443.78;3507437;39;100674;-81
2021/06/28 01:29:33;;;;;;;6.53;5.60;;;16.10;99.90;;;16.07;100.00;100444.16;3506435;39;100658;-81
2021/06/28 01:32:45;;;;;;;6.97;4.73;;;16.10;99.90;;;15.95;100.00;100444.88;3507855;39;100675;-82
2021/06/28 01:35:56;;;;;;;5.95;4.97;;;16.00;99.90;;;15.70;100.00;100441.66;3507925;39;100146;-82
2021/06/28 01:39:07;;;;;;;5.93;4.87;;;16.00;99.90;;;15.70;100.00;100449.72;3507305;39;101031;-82
2021/06/28 01:42:21;;;;;;;6.55;5.78;;;15.90;99.90;;;15.76;100.00;100446.28;3487465;40;103420;-82
2021/06/28 01:45:38;;;;;;;7.20;6.17;;;15.80;99.90;;;15.77;100.00;100453.34;3498855;39;100540;-80
2021/06/28 01:48:50;;;;;;;6.78;5.78;;;15.70;99.90;;;15.54;100.00;100453.41;3488116;40;100293;-81
2021/06/28 01:52:03;;;;;;;5.18;4.65;;;15.80;99.90;;;15.46;100.00;100454.34;3494448;39;101635;-82
2021/06/28 01:55:15;;;;;;;6.07;5.15;;;15.70;99.90;;;15.28;100.00;100451.19;3502159;39;101577;-82
2021/06/28 01:58:31;;;;;;;5.20;4.47;;;15.60;99.90;;;15.26;100.00;100458.59;3500223;39;100666;-81
2021/06/28 02:01:43;;;;;;;7.47;5.70;;;15.50;99.90;;;15.26;100.00;100457.78;3514935;39;100025;-84
2021/06/28 02:04:55;;;;;;;6.37;5.33;;;15.50;99.90;;;15.18;100.00;100455.16;3507254;39;102139;-83
2021/06/28 02:08:07;;;;;;;6.93;5.27;;;15.40;99.90;;;15.24;100.00;100460.66;3507490;39;101141;-84
2021/06/28 02:11:21;;;;;;;6.50;5.00;;;15.40;99.90;;;15.21;100.00;100452.91;3502777;39;100669;-83
2021/06/28 02:14:34;;;;;;;7.70;5.33;;;15.40;99.90;;;15.49;100.00;100450.44;3517332;39;99920;-83
2021/06/28 02:17:45;;;;;;;5.47;4.73;;;15.40;99.90;;;15.39;100.00;100449.88;3491370;39;100338;-83
2021/06/28 02:20:57;;;;;;;4.93;4.33;;;15.40;99.90;;;15.42;100.00;100449.50;3495345;39;101761;-82
2021/06/28 02:24:09;;;;;;;7.40;5.50;;;15.40;99.90;;;15.68;100.00;100457.16;3487166;40;102611;-80
2021/06/28 02:27:22;;;;;;;6.83;5.13;;;15.60;99.90;;;15.59;100.00;100450.19;3487492;40;100148;-82
2021/06/28 02:30:36;;;;;;;6.33;5.10;;;15.60;99.90;;;15.47;100.00;100447.09;3504650;39;101734;-82
2021/06/28 02:33:50;;;;;;;5.30;4.68;;;15.60;99.90;;;15.56;100.00;100447.88;3507989;39;101552;-82
2021/06/28 02:37:02;;;;;;;6.57;5.32;;;15.70;99.90;;;15.61;100.00;100431.94;3507109;39;100731;-82
2021/06/28 02:40:14;;;;;;;4.95;4.45;;;15.70;99.90;;;15.73;100.00;100428.59;3507665;39;100458;-82
2021/06/28 02:43:26;;;;;;;5.43;4.93;;;15.70;99.90;;;15.77;100.00;100432.59;3497094;39;103326;-82
2021/06/28 02:46:40;;;;;;;6.70;4.70;;;15.70;99.90;;;15.93;100.00;100434.25;3507370;39;101016;-82
2021/06/28 02:49:52;;;;;;;5.60;4.53;;;15.80;99.90;;;15.92;100.00;100429.88;3496945;39;102275;-82
2021/06/28 02:53:04;;;;;;;4.38;3.65;;;15.80;99.90;;;16.02;100.00;100426.88;3496624;39;101896;-83
2021/06/28 02:59:39;;;;;;;6.80;4.77;;;15.90;99.90;;;16.11;100.00;100423.03;3506020;39;101073;-83
2021/06/28 03:02:52;;;;;;;5.40;4.82;;;15.90;99.90;;;15.99;100.00;100411.88;3506631;39;100664;-83
2021/06/28 03:06:04;;;;;;;4.97;3.65;;;15.90;99.90;;;16.06;100.00;100415.53;3507495;39;100437;-83
2021/06/28 03:09:17;;;;;;;4.35;3.92;;;15.90;99.90;;;16.05;100.00;100410.31;3513597;39;102836;-81
2021/06/28 03:12:29;;;;;;;5.63;4.75;;;16.00;99.90;;;16.17;100.00;100414.19;3521798;39;101238;-83
2021/06/28 03:15:42;;;;;;;5.88;4.28;;;15.90;99.90;;;16.33;100.00;100403.09;3526672;39;99541;-82
2021/06/28 03:18:55;;;;;;;6.85;4.93;;;15.90;99.90;;;16.31;100.00;100404.34;3507706;39;100298;-82
2021/06/28 03:22:07;;;;;;;5.07;4.15;;;15.90;99.90;;;16.50;100.00;100396.44;3503132;39;103404;-80
2021/06/28 03:25:19;;;;;;;4.77;4.00;;;16.00;99.90;;;16.33;100.00;100397.72;3507230;39;101450;-82
2021/06/28 03:28:32;;;;;;;5.97;4.57;;;15.90;99.90;;;16.38;100.00;100406.09;3497260;39;102807;-81
2021/06/28 03:31:43;;;;;;;5.90;4.55;;;16.10;99.90;;;16.21;100.00;100404.66;3506046;39;101245;-82
2021/06/28 03:34:57;;;;;;;5.85;4.60;;;16.20;99.90;;;16.20;100.00;100411.06;3506783;39;100639;-83
2021/06/28 03:38:09;;;;;;;4.60;3.60;;;16.20;99.90;;;16.32;100.00;100417.63;3496455;39;103579;-82
2021/06/28 03:41:21;;;;;;;5.60;4.18;;;16.20;99.90;;;16.35;100.00;100417.25;3496898;39;102697;-81
2021/06/28 03:44:33;;;;;;;7.18;4.78;;;16.30;99.90;;;16.44;100.00;100409.88;3506938;39;100122;-81
2021/06/28 03:47:44;;;;;;;5.63;4.03;;;16.30;99.90;;;16.47;100.00;100417.59;3506343;39;101017;-81
2021/06/28 03:50:58;;;;;;;5.68;4.10;;;17.10;99.90;;;16.42;100.00;100411.94;3506616;39;100816;-82
2021/06/28 03:54:10;;;;;;;6.70;4.07;;;16.40;99.90;;;16.44;100.00;100413.41;3506569;39;100793;-82
2021/06/28 03:57:22;;;;;;;4.10;3.67;;;16.50;99.90;;;16.35;100.00;100411.84;3506943;39;100444;-80
2021/06/28 04:00:36;;;;;;;5.35;4.47;;;16.50;99.90;;;16.47;100.00;100414.88;3506200;39;101150;-81
2021/06/28 04:03:50;;;;;;;4.78;3.83;;;16.60;99.90;;;16.53;100.00;100419.53;3506707;39;103170;-82
2021/06/28 04:07:04;;;;;;;4.35;3.88;;;16.60;99.90;;;16.67;100.00;100420.53;3513975;39;99950;-82
2021/06/28 04:10:16;;;;;;;7.10;4.28;;;16.70;99.90;;;16.70;100.00;100420.09;3508267;39;100296;-82
2021/06/28 04:13:27;;;;;;;4.97;4.00;;;16.70;99.90;;;16.69;100.00;100418.47;3506685;39;100347;-82
2021/06/28 04:16:39;;;;;;;4.70;4.22;;;16.80;99.90;;;16.79;100.00;100414.41;3506555;39;101027;-82
2021/06/28 04:19:51;;;;;;;5.13;4.63;;;16.80;99.90;;;16.88;100.00;100407.81;3506616;39;100431;-81
2021/06/28 04:23:05;;;;;;;5.40;4.40;;;16.90;99.90;;;16.87;100.00;100399.88;3488877;40;100183;-82
2021/06/28 04:26:17;;;;;;;8.10;5.03;;;17.00;99.90;;;17.02;100.00;100411.44;3508829;39;100902;-83
2021/06/28 04:29:28;;;;;;;7.15;4.85;;;17.10;99.90;;;17.02;100.00;100403.34;3509527;39;101071;-82
2021/06/28 04:32:40;;;;;;;6.40;4.35;;;17.10;99.90;;;16.97;100.00;100399.53;3499266;40;100421;-82
2021/06/28 04:35:53;;;;;;;5.45;4.20;;;17.20;99.90;;;17.09;100.00;100392.56;3506683;39;100026;-82
2021/06/28 04:39:06;;;;;;;6.90;5.10;;;17.20;99.90;;;17.08;100.00;100404.41;3491125;39;102258;-82
2021/06/28 04:42:18;;;;;;;6.97;4.28;;;17.20;99.90;;;17.21;100.00;100407.19;3509646;39;100986;-82
2021/06/28 04:45:31;;;;;;;5.00;4.18;;;17.30;99.90;;;17.39;100.00;100412.09;3502986;39;100361;-82
2021/06/28 04:48:43;;;;;;;6.25;4.30;;;17.40;99.90;;;17.35;100.00;100398.13;3513649;39;101076;-83
2021/06/28 04:51:55;;;;;;;6.13;4.55;;;17.50;99.90;;;17.72;100.00;100387.94;3495683;39;103578;-83
2021/06/28 04:55:08;;;;;;;5.57;3.88;;;17.60;99.90;;;17.82;100.00;100400.03;3520467;39;101079;-80
2021/06/28 04:58:19;;;;;;;4.43;3.78;;;17.70;99.90;;;17.98;100.00;100398.88;3514908;39;99952;-81
2021/06/28 05:01:31;;;;;;;4.72;3.28;;;17.80;99.90;;;18.09;100.00;100400.13;3505742;39;100336;-81
2021/06/28 05:04:44;;;;;;;5.30;3.65;;;18.00;99.90;;;18.12;100.00;100399.75;3496816;39;103238;-82
2021/06/28 05:07:56;;;;;;;4.75;4.28;;;18.10;99.90;;;18.24;100.00;100389.97;3506558;39;101780;-82
2021/06/28 05:11:09;;;;;;;4.65;3.42;;;18.20;99.90;;;18.36;100.00;100391.03;3504988;39;100261;-80
2021/06/28 05:14:21;;;;;;;5.18;3.90;;;18.30;99.90;;;18.21;100.00;100387.66;3507296;39;100827;-82
2021/06/28 05:17:33;;;;;;;6.03;3.97;;;18.40;99.90;;;18.15;100.00;100396.63;3498493;39;102783;-82
2021/06/28 05:20:44;;;;;;;6.13;4.32;;;18.60;99.90;;;18.33;100.00;100393.31;3507268;39;101610;-84
2021/06/28 05:23:56;;;;;;;6.53;3.97;;;18.60;99.90;;;18.03;100.00;100400.97;3508329;39;100912;-83
2021/06/28 05:27:10;;;;;;;6.75;5.00;;;18.70;99.90;;;17.98;100.00;100398.88;3498986;39;100115;-82
2021/06/28 05:30:23;;;;;;;5.50;5.00;;;18.70;99.90;;;17.93;100.00;100404.88;3508026;39;101304;-82
2021/06/28 05:33:35;;;;;;;7.40;5.10;;;18.70;99.90;;;17.99;100.00;100410.53;3505865;39;101295;-82
2021/06/28 05:36:46;;;;;;;7.00;4.20;;;19.00;99.90;;;18.26;100.00;100409.56;3497415;40;100734;-81
2021/06/28 05:39:58;;;;;;;4.53;3.58;;;19.00;99.90;;;18.53;100.00;100399.63;3497230;40;100075;-81
2021/06/28 05:43:11;;;;;;;3.85;3.30;;;18.80;99.90;;;18.52;100.00;100404.19;3497273;40;101057;-82
2021/06/28 05:46:23;;;;;;;4.82;3.80;;;18.80;99.90;;;18.70;100.00;100402.75;3487271;40;103062;-82
2021/06/28 05:49:36;;;;;;;6.57;3.90;;;19.40;99.90;;;18.78;100.00;100411.53;3487892;40;102338;-82
2021/06/28 05:52:49;;;;;;;4.05;3.63;;;19.10;99.90;;;19.06;100.00;100407.75;3506293;39;101564;-82
2021/06/28 05:56:01;;;;;;;3.92;3.55;;;19.20;99.90;;;18.96;100.00;100400.88;3512082;39;100184;-82
2021/06/28 05:59:14;;;;;;;4.55;3.60;;;19.30;99.90;;;19.14;100.00;100399.41;3498031;40;101303;-83
2021/06/28 06:02:26;;;;;;;4.43;3.90;;;19.40;99.90;;;19.14;100.00;100400.25;3488322;40;100579;-82
2021/06/28 06:05:38;;;;;;;4.95;3.40;;;19.50;99.90;;;19.52;100.00;100394.97;3494519;40;101680;-82
2021/06/28 06:08:51;;;;;;;6.13;3.72;;;19.70;99.90;;;19.60;100.00;100404.75;3487847;40;102958;-82
2021/06/28 06:12:02;;;;;;;4.93;3.90;;;20.50;99.90;;;19.59;100.00;100397.66;3498604;40;101087;-83
2021/06/28 06:15:17;;;;;;;4.20;3.35;;;20.00;99.90;;;20.07;100.00;100404.31;3497647;40;100804;-81
2021/06/28 06:18:28;;;;;;;4.38;3.22;;;20.20;99.90;;;20.86;100.00;100397.53;3496529;40;100234;-83
2021/06/28 06:21:40;;;;;;;4.45;3.38;;;20.50;99.90;;;20.62;100.00;100392.94;3496547;40;101233;-83
2021/06/28 06:24:52;;;;;;;3.95;3.53;;;20.70;99.90;;;20.65;100.00;100393.31;3496693;40;101290;-82
2021/06/28 06:28:04;;;;;;;5.07;3.10;;;21.10;99.90;;;21.17;100.00;100393.91;3496766;40;100991;-82
2021/06/28 06:31:18;;;;;;;4.00;3.60;;;21.30;99.90;;;21.50;100.00;100383.53;3497289;40;100321;-83
2021/06/28 06:34:30;;;;;;;4.22;3.00;;;21.60;99.90;;;21.85;100.00;100381.00;3499478;39;101082;-81
2021/06/28 06:37:41;;;;;;;3.78;3.40;;;21.90;99.90;;;21.65;100.00;100382.28;3497292;40;101460;-83
2021/06/28 06:40:53;;;;;;;3.60;3.05;;;22.20;99.90;;;22.32;100.00;100380.38;3502345;39;102694;-82
2021/06/28 06:44:05;;;;;;;3.83;2.97;;;22.50;99.90;;;22.47;100.00;100380.78;3506261;39;99940;-83
2021/06/28 06:47:20;;;;;;;3.95;3.15;;;22.70;98.80;;;22.42;100.00;100380.63;3502783;39;102839;-82
2021/06/28 06:50:32;;;;;;;3.63;2.70;;;23.00;96.80;;;22.87;100.00;100381.81;3515315;39;99975;-83
2021/06/28 06:53:44;;;;;;;2.88;2.47;;;23.30;94.90;;;23.78;100.00;100384.94;3496775;39;103188;-82
2021/06/28 06:56:55;;;;;;;6.18;2.20;;;23.70;93.90;;;23.81;100.00;100368.91;3506289;39;100069;-84
2021/06/28 07:00:07;;;;;;;2.45;2.25;;;24.00;92.50;;;23.66;100.00;100375.94;3506453;39;100090;-82
2021/06/28 07:03:20;;;;;;;3.80;2.75;;;24.40;90.40;;;23.97;100.00;100368.13;3496659;39;103551;-82
2021/06/28 07:06:33;;;;;;;2.17;2.05;;;24.80;87.80;;;24.35;100.00;100377.63;3490235;39;102660;-82
2021/06/28 07:09:45;;;;;;;2.38;2.10;;;25.20;85.80;;;24.38;100.00;100371.63;3505969;39;100393;-83
2021/06/28 07:12:57;;;;;;;4.10;2.38;;;25.60;82.90;;;24.26;100.00;100374.44;3505645;39;101352;-83
2021/06/28 07:16:09;;;;;;;6.20;2.20;;;26.00;78.70;;;25.88;100.00;100378.81;3504901;39;101482;-83
2021/06/28 07:19:24;;;;;;;4.13;2.60;;;25.70;77.30;;;26.73;100.00;100366.25;3505816;39;101658;-81
2021/06/28 07:22:36;;;;;;;2.20;1.98;;;25.90;76.20;;;26.02;100.00;100374.59;3496555;39;100430;-82
2021/06/28 07:25:49;;;;;;;2.00;1.83;;;26.50;71.50;;;25.49;100.00;100374.47;3495275;39;103613;-82
2021/06/28 07:29:00;;;;;;;1.65;1.35;;;27.00;66.90;;;25.34;100.00;100373.19;3504970;39;100706;-83
2021/06/28 07:32:12;;;;;;;2.45;1.83;;;27.30;62.30;;;26.28;100.00;100378.47;3494934;39;102217;-83
2021/06/28 07:35:26;;;;;;;2.00;1.75;;;27.60;60.10;;;28.15;100.00;100369.78;3510016;39;100210;-83
2021/06/28 07:38:38;;;;;;;2.28;1.58;;;27.90;60.60;;;27.28;100.00;100378.75;3494505;39;103261;-83
2021/06/28 07:41:51;;;;;;;2.50;2.03;;;28.40;59.40;;;28.10;100.00;100372.50;3495062;39;103048;-81
2021/06/28 07:45:03;;;;;;;2.50;1.67;;;28.80;58.70;;;26.81;100.00;100380.34;3509337;39;102844;-82
2021/06/28 07:48:15;;;;;;;1.35;1.25;;;29.30;56.80;;;27.66;100.00;100367.44;3505976;39;99957;-83
2021/06/28 07:51:29;;;;;;;2.28;1.90;;;29.60;55.00;;;28.92;100.00;100366.03;3504238;39;101108;-81
2021/06/28 07:54:43;;;;;;;1.95;1.85;;;30.00;55.80;;;29.44;100.00;100373.91;3503805;39;100558;-80
2021/06/28 07:57:55;;;;;;;2.15;1.80;;;30.30;55.80;;;29.24;100.00;100369.25;3494909;39;101347;-82
2021/06/28 08:01:07;;;;;;;1.33;1.23;;;30.80;54.60;;;29.04;100.00;100363.81;3494528;39;101020;-82
2021/06/28 08:04:19;;;;;;;2.40;1.73;;;31.20;54.10;;;27.30;100.00;100358.16;3485939;39;102850;-81
2021/06/28 08:07:33;;;;;;;3.60;1.85;;;31.50;51.10;;;28.22;100.00;100356.59;3494244;39;103606;-82
2021/06/28 08:10:44;;;;;;;1.75;1.65;;;31.60;49.90;;;29.70;100.00;100363.59;3506532;39;100563;-83
2021/06/28 08:14:01;;;;;;;3.28;2.20;;;32.10;50.30;;;30.07;100.00;100362.34;3496075;39;100337;-83
2021/06/28 08:17:12;;;;;;;1.50;1.40;;;32.00;49.90;;;28.13;100.00;100355.47;3507001;39;101958;-82
2021/06/28 08:20:25;;;;;;;3.53;2.33;;;32.20;46.10;;;28.28;100.00;100357.44;3512574;39;103011;-83
2021/06/28 08:23:39;;;;;;;2.28;1.85;;;32.10;45.00;;;27.60;100.00;100365.75;3506089;39;100528;-83
2021/06/28 08:26:51;;;;;;;2.63;1.52;;;31.90;43.70;;;28.01;100.00;100365.88;3506423;39;100243;-82
2021/06/28 08:30:03;;;;;;;1.55;1.45;;;31.80;43.30;;;27.99;100.00;100363.41;3505381;39;100703;-82
2021/06/28 08:33:15;;;;;;;1.30;1.20;;;31.70;41.60;;;28.29;100.00;100359.94;3505646;39;101510;-81
2021/06/28 08:36:26;;;;;;;2.35;2.08;;;31.60;41.60;;;28.14;100.00;100363.44;3501274;39;100638;-81
2021/06/28 08:39:40;;;;;;;2.10;1.35;;;31.50;41.20;;;27.64;100.00;100363.28;3517286;39;100190;-82
2021/06/28 08:42:53;;;;;;;1.45;1.35;;;31.10;40.50;;;28.08;100.00;100361.75;3510616;39;100055;-82
2021/06/28 08:46:05;;;;;;;1.15;1.05;;;30.80;41.20;;;29.04;100.00;100355.53;3494050;40;103075;-82
2021/06/28 08:49:17;;;;;;;1.42;1.13;;;30.70;42.00;;;28.79;100.00;100363.84;3495490;40;100481;-82
2021/06/28 08:52:30;;;;;;;1.45;1.35;;;30.80;41.90;;;28.04;100.00;100357.09;3495011;40;100119;-81
2021/06/28 08:55:44;;;;;;;1.73;1.35;;;30.90;40.60;;;27.70;100.00;100354.78;3501923;39;103149;-82
2021/06/28 08:58:56;;;;;;;2.42;1.48;;;30.90;39.40;;;28.02;100.00;100357.38;3485951;40;103559;-81
2021/06/28 09:02:09;;;;;;;2.75;1.40;;;30.80;39.00;;;28.33;100.00;100358.25;3486192;40;102687;-81
2021/06/28 09:05:39;;;;;;;1.73;1.50;;;30.80;39.60;;;29.29;100.00;100361.00;3479437;40;100795;-81
2021/06/28 09:09:03;;;;;;;1.65;1.10;;;30.90;39.40;;;29.64;100.00;100351.78;3478633;40;103202;-81
2021/06/28 09:12:17;;;;;;;1.33;1.23;;;31.10;39.60;;;29.19;100.00;100357.41;3486309;40;101156;-82
2021/06/28 09:15:41;;;;;;;1.98;1.48;;;31.40;39.00;;;29.56;100.00;100346.84;3481770;40;102397;-82
2021/06/28 09:19:01;;;;;;;1.55;1.20;;;31.70;38.60;;;29.36;100.00;100363.44;3485508;40;101472;-82
2021/06/28 09:22:14;;;;;;;2.08;1.55;;;31.80;38.30;;;29.15;100.00;100364.59;3485652;40;102860;-80
2021/06/28 09:25:32;;;;;;;2.53;1.30;;;31.80;38.60;;;28.89;100.00;100361.88;3495910;40;101131;-81
2021/06/28 09:28:59;;;;;;;1.60;1.33;;;32.00;37.90;;;29.31;100.00;100357.94;3496147;40;100724;-83
2021/06/28 09:32:17;;;;;;;2.08;1.38;;;32.10;37.90;;;29.53;100.00;100352.13;3514983;39;100090;-81
2021/06/28 09:35:35;;;;;;;1.48;1.20;;;32.30;38.20;;;28.97;100.00;100354.16;3525002;39;100494;-81
2021/06/28 09:39:01;;;;;;;1.55;1.27;;;31.80;36.70;;;29.91;100.00;100356.06;3516025;39;100201;-82
2021/06/28 09:42:19;;;;;;;1.52;1.42;;;32.40;37.40;;;28.98;100.00;100350.31;3506437;39;100239;-83
2021/06/28 09:45:35;;;;;;;2.65;1.55;;;32.50;36.80;;;29.13;100.00;100347.53;3506287;39;101335;-82
2021/06/28 09:48:55;;;;;;;1.30;1.20;;;32.70;36.80;;;29.68;100.00;100349.28;3504347;39;103130;-83
2021/06/28 09:52:07;;;;;;;2.17;1.42;;;32.80;36.10;;;30.53;98.37;100344.41;3491881;39;103866;-81
2021/06/28 09:55:39;;;;;;;1.33;1.23;;;32.90;37.00;;;28.87;100.00;100357.75;3495238;39;102677;-83
2021/06/28 09:58:51;;;;;;;1.77;1.45;;;33.10;35.10;;;29.75;100.00;100357.25;3506352;39;100137;-82
2021/06/28 10:02:10;;;;;;;1.58;1.30;;;33.10;35.50;;;31.71;91.10;100353.97;3512317;39;103240;-82
2021/06/28 10:05:27;;;;;;;1.30;1.20;;;33.30;36.60;;;29.62;97.31;100348.50;3505631;39;101311;-83
2021/06/28 10:08:51;;;;;;;1.50;1.40;;;33.60;35.30;;;29.24;100.00;100349.97;3502512;39;102366;-83
2021/06/28 10:12:03;;;;;;;2.08;1.40;;;33.90;34.30;;;30.45;100.00;100328.41;3511695;39;100336;-83
2021/06/28 10:15:16;;;;;;;2.13;1.77;;;33.80;34.80;;;28.92;100.00;100333.81;3496130;39;102981;-82
2021/06/28 10:18:32;;;;;;;1.67;1.40;;;33.60;34.60;;;29.48;100.00;100338.34;3512572;39;103447;-82
2021/06/28 10:21:45;;;;;;;2.25;1.33;;;33.30;35.00;;;29.73;100.00;100334.66;3499574;39;100755;-81
2021/06/28 10:24:57;;;;;;;1.10;0.90;;;32.90;35.50;;;29.57;100.00;100336.63;3505849;39;100479;-83
2021/06/28 10:28:09;;;;;;;1.60;1.50;;;33.10;36.20;;;31.16;100.00;100330.53;3505387;39;100976;-82
2021/06/28 10:31:20;;;;;;;1.52;1.08;;;33.40;36.50;;;29.50;100.00;100333.38;3504753;39;101112;-83
2021/06/28 10:34:34;;;;;;;1.73;1.42;;;33.60;35.30;;;29.83;100.00;100326.31;3507684;39;102313;-81
2021/06/28 10:38:03;;;;;;;1.67;1.33;;;33.90;35.30;;;29.54;100.00;100318.75;3495147;39;100316;-83
2021/06/28 10:41:36;;;;;;;1.30;1.20;;;34.20;34.60;;;30.54;100.00;100320.38;3525019;39;101306;-83
2021/06/28 10:45:05;;;;;;;1.40;1.30;;;34.30;35.00;;;30.56;100.00;100310.66;3512693;39;100040;-82
2021/06/28 10:48:40;;;;;;;1.92;1.83;;;34.40;34.60;;;28.97;100.00;100313.66;3506593;39;100656;-83
2021/06/28 10:52:06;;;;;;;1.88;1.52;;;34.20;34.00;;;30.30;100.00;100309.19;3482862;39;100035;-83
2021/06/28 10:55:24;;;;;;;2.05;1.35;;;33.80;35.20;;;29.73;100.00;100307.91;3495472;39;103019;-81
2021/06/28 10:58:44;;;;;;;0.95;0.77;;;33.70;35.50;;;30.01;100.00;100303.63;3511893;39;103409;-81
2021/06/28 11:02:09;;;;;;;1.55;1.35;;;33.80;35.20;;;30.12;100.00;100299.69;3505686;39;100922;-81
2021/06/28 11:05:23;;;;;;;1.95;1.10;;;33.80;35.00;;;29.73;100.00;100291.34;3505875;39;100448;-82
2021/06/28 11:08:50;;;;;;;1.95;1.52;;;33.80;34.70;;;30.26;100.00;100286.06;3505125;39;101117;-82
2021/06/28 11:12:32;;;;;;;2.60;1.55;;;33.80;35.20;;;30.55;100.00;100292.44;3504716;39;100856;-83
2021/06/28 11:15:52;;;;;;;1.85;1.48;;;34.00;35.20;;;31.34;100.00;100279.19;3474140;40;102816;-81
2021/06/28 11:19:04;;;;;;;2.15;1.45;;;34.20;35.40;;;31.28;100.00;100286.72;3475950;39;100216;-82
2021/06/28 11:22:22;;;;;;;1.88;1.33;;;34.50;35.50;;;31.12;100.00;100293.56;3494877;39;102891;-83
2021/06/28 11:25:48;;;;;;;3.33;1.98;;;34.70;35.10;;;29.70;100.00;100291.91;3504826;39;102685;-83
2021/06/28 11:29:11;;;;;;;2.65;1.85;;;34.90;33.90;;;30.03;100.00;100290.38;3504245;39;100093;-83
2021/06/28 11:33:00;;;;;;;1.63;1.52;;;34.90;33.70;;;30.42;100.00;100278.44;3504819;39;100318;-82
2021/06/28 11:36:14;;;;;;;1.83;1.50;;;34.90;34.30;;;30.43;100.00;100285.63;3490540;40;103234;-83
2021/06/28 11:39:47;;;;;;;2.67;1.83;;;34.90;34.20;;;31.14;100.00;100271.97;3503940;40;100365;-83
2021/06/28 11:43:18;;;;;;;3.08;1.63;;;35.00;34.70;;;29.69;100.00;100279.22;3484349;40;102216;-82
2021/06/28 11:46:34;;;;;;;3.05;1.90;;;34.90;33.60;;;30.52;100.00;100273.69;3495877;40;99944;-83
2021/06/28 11:49:50;;;;;;;1.48;1.35;;;34.30;34.90;;;30.22;100.00;100273.94;3484755;40;103064;-82
2021/06/28 11:53:02;;;;;;;1.85;1.55;;;34.20;35.10;;;29.96;100.00;100284.34;3495452;40;101307;-82
2021/06/28 11:56:53;;;;;;;1.33;1.15;;;33.90;35.10;;;30.03;100.00;100281.28;3470064;40;101746;-82
2021/06/28 12:00:08;;;;;;;1.08;1.00;;;33.60;35.60;;;31.03;100.00;100265.69;3494762;40;100210;-82
2021/06/28 12:03:47;;;;;;;2.38;1.67;;;33.60;36.20;;;29.96;100.00;100267.78;3494658;40;101019;-82
2021/06/28 12:07:00;;;;;;;1.52;1.35;;;33.80;35.40;;;30.45;100.00;100259.38;3458034;40;103433;-81
2021/06/28 12:10:17;;;;;;;2.47;1.80;;;33.90;35.60;;;29.61;100.00;100266.06;3495984;40;101042;-82
2021/06/28 12:13:35;;;;;;;2.38;1.83;;;34.40;35.10;;;29.41;100.00;100266.16;3494513;40;100201;-82
2021/06/28 12:17:00;;;;;;;1.88;1.52;;;33.60;35.10;;;30.21;100.00;100259.31;3494214;40;101151;-82
2021/06/28 12:20:19;;;;;;;2.08;1.88;;;33.40;35.70;;;30.48;100.00;100253.28;3485109;40;103463;-79
2021/06/28 12:23:35;;;;;;;1.63;1.48;;;33.40;36.00;;;31.01;100.00;100245.03;3484676;40;102505;-82
2021/06/28 12:26:50;;;;;;;2.05;1.80;;;33.60;35.80;;;31.03;100.00;100243.59;3485178;40;101267;-82
2021/06/28 12:30:03;;;;;;;8.00;1.58;;;33.80;35.60;;;31.81;100.00;100233.19;3500156;39;103413;-82
2021/06/28 12:33:17;;;;;;;3.00;2.10;;;34.40;36.10;;;31.08;100.00;100228.91;3494342;40;101254;-83
2021/06/28 12:36:29;;;;;;;2.40;1.35;;;34.40;35.20;;;30.71;100.00;100235.94;3492817;40;104009;-83
2021/06/28 12:39:42;;;;;;;1.95;1.58;;;34.70;34.10;;;31.28;100.00;100225.09;3494608;40;100454;-80
2021/06/28 12:42:57;;;;;;;1.58;1.48;;;34.90;34.40;;;30.96;100.00;100225.72;3494209;40;101290;-84
2021/06/28 12:46:13;;;;;;;1.98;1.85;;;35.10;33.80;;;30.41;100.00;100230.72;3496340;40;101147;-83
2021/06/28 12:49:27;;;;;;;1.67;1.58;;;35.10;33.10;;;30.81;100.00;100228.66;3498755;40;101797;-83
2021/06/28 12:52:57;;;;;;;1.58;1.48;;;34.80;33.20;;;30.39;100.00;100227.44;3490700;40;101307;-82
2021/06/28 12:56:24;;;;;;;1.65;1.48;;;34.60;32.80;;;31.13;98.70;100226.13;3495208;40;101401;-82
2021/06/28 12:59:57;;;;;;;1.80;1.70;;;34.40;33.70;;;30.17;100.00;100218.78;3496157;40;101229;-83
2021/06/28 13:03:16;;;;;;;1.65;1.55;;;34.30;33.50;;;30.83;100.00;100210.69;3481677;40;102579;-81
2021/06/28 13:06:43;;;;;;;2.00;1.73;;;34.30;34.30;;;30.18;100.00;100224.00;3485508;40;100317;-82
2021/06/28 13:10:07;;;;;;;1.77;1.38;;;34.30;33.80;;;30.62;100.00;100212.03;3501489;39;102736;-82
2021/06/28 13:13:38;;;;;;;1.80;1.38;;;34.00;34.00;;;32.37;93.51;100211.00;3501903;39;103313;-83
2021/06/28 13:17:01;;;;;;;2.15;1.83;;;34.60;34.90;;;31.82;91.83;100212.72;3495466;40;100629;-82
2021/06/28 13:20:25;;;;;;;2.00;1.80;;;35.00;33.80;;;30.79;100.00;100214.31;3502270;39;100196;-83